Nearby METAR Reports

 

EDNY - Friedrichshafen, Germany
Distance from station: ONO 32km
aktuell: 01.03.2017 20:20
sehr leichter Niederschlag, geschlossene Wolkendecke
sehr leichter Niederschlag, geschlossene Wolkendecke
 Wind von WSW
Wind: WSW 13 km/h
Temperatur: 5°C
gefühlte Temperatur: 2°C
Taupunkt: 4°C
Luftfeuchte: 93%
Luftdruck: 1011 hPa
Zusammenfassung: sehr leichter Niederschlag
Clouds: geschlossene Wolkendecke
Visibility: 10 km
Cloud details: geschlossene Wolkendecke 762 m
2017/03/01 19:20 EDNY 011920Z 24007KT 9999 -RA OVC025 05/04 Q1011
LSZR - Rheineck/Altenrh, Switzerland
Distance from station: OSO 37km
aktuell: 01.03.2017 20:50
sehr leichter Niederschlag, teilweise bewölkt
sehr leichter Niederschlag, teilweise bewölkt
 Wind von NO
Wind: NO 7 km/h
Temperatur: 6°C
gefühlte Temperatur: 4°C
Taupunkt: 4°C
Luftfeuchte: 87%
Luftdruck: 1010 hPa
Zusammenfassung: sehr leichter Niederschlag
Clouds: teilweise bewölkt
Visibility: 10 km
Cloud details: stark bewölkt 1280 m
teilweise bewölkt 1524 m
2017/03/01 19:50 LSZR 011950Z AUTO 05004KT 350V100 9999 -RA BKN042 SCT050 06/04 Q1010
LSMD - Dubendorf, Switzerland
Distance from station: SW 40km
aktuell: 01.03.2017 20:50
sehr leichter Niederschlag, geschlossene Wolkendecke
sehr leichter Niederschlag, geschlossene Wolkendecke
 Wind von SW
Wind: SW 7 km/h
Temperatur: 6°C
gefühlte Temperatur: 4°C
Taupunkt: 3°C
Luftfeuchte: 81%
Luftdruck: 1011 hPa
Zusammenfassung: sehr leichter Niederschlag
Clouds: geschlossene Wolkendecke
Visibility: 16 miles
Cloud details: Few Clouds 610 m
stark bewölkt 1097 m
geschlossene Wolkendecke 1646 m
2017/03/01 19:50 LSMD 011950Z AUTO 22004KT 190V270 9999NDV -RA FEW020 BKN036 OVC054 06/03 Q1011 RERA RMK
 
LSZH - Zurich-Kloten (a, Switzerland
Distance from station: WSW 44km
aktuell: 01.03.2017 20:50
sehr leichter Niederschlag, geschlossene Wolkendecke
sehr leichter Niederschlag, geschlossene Wolkendecke
 Wind von SSW
Wind: SSW 19 km/h
Temperatur: 5°C
gefühlte Temperatur: 1°C
Taupunkt: 3°C
Luftfeuchte: 87%
Luftdruck: 1011 hPa
Zusammenfassung: sehr leichter Niederschlag
Clouds: geschlossene Wolkendecke
Visibility: 10 km
Cloud details: Few Clouds 396 m
geschlossene Wolkendecke 1219 m
2017/03/01 19:50 LSZH 011950Z 20010KT 160V230 9999 -RA FEW013 OVC040 05/03 Q1011 NOSIG
LOIH - Hohenems-Dornbir, Austria
Distance from station: OSO 51km
aktuell: 31.10.2016 17:00
NOT Current
geschlossene Wolkendecke
geschlossene Wolkendecke
 Wind von calm
Wind: Windstill
Temperatur: 10°C
Taupunkt: 9°C
Luftfeuchte: 94%
Luftdruck: 1026 hPa
Clouds: geschlossene Wolkendecke
Cloud details: geschlossene Wolkendecke 305 m
2016/10/31 16:00 LOIH 311600Z 00000KT 10KM OVC010ST 10/09 Q1026 RMK OVC
LSME - Emmen, Switzerland
Distance from station: SW 82km
aktuell: 01.03.2017 20:50
sehr leichter Niederschlag, geschlossene Wolkendecke
sehr leichter Niederschlag, geschlossene Wolkendecke
 Wind von varies
Wind: varies 4 km/h
Temperatur: 6°C
Taupunkt: 4°C
Luftfeuchte: 87%
Luftdruck: 1012 hPa
Zusammenfassung: sehr leichter Niederschlag
Clouds: geschlossene Wolkendecke
Visibility: 16 miles
Cloud details: Few Clouds 1280 m
geschlossene Wolkendecke 1737 m
2017/03/01 19:50 LSME 011950Z AUTO VRB02KT 9999NDV -RA FEW042 OVC057 06/04 Q1012 RMK
 
LSZC - Buochs, Switzerland
Distance from station: SW 89km
aktuell: 01.03.2017 20:50
sehr leichter Niederschlag, stark bewölkt
sehr leichter Niederschlag, stark bewölkt
 Wind von varies
Wind: varies 4 km/h
Temperatur: 6°C
Taupunkt: 4°C
Luftfeuchte: 87%
Luftdruck: 1012 hPa
Zusammenfassung: sehr leichter Niederschlag
Clouds: stark bewölkt
Visibility: 10 km
Cloud details: stark bewölkt 1524 m
2017/03/01 19:50 LSZC 011950Z AUTO VRB02KT 9999 -RA BKN050 06/04 Q1012
ETHL - Laupheim (ger-Ar, Germany
Distance from station: NO 92km
aktuell: 01.03.2017 20:20
sehr leichter Niederschlag, stark bewölkt
sehr leichter Niederschlag, stark bewölkt
 Wind von SW
Wind: SW 30 km/h, Windböen: 48 km/h
Temperatur: 5°C
gefühlte Temperatur: 0°C
Taupunkt: 2°C
Luftfeuchte: 81%
Luftdruck: 1008 hPa
Zusammenfassung: sehr leichter Niederschlag
Clouds: stark bewölkt
Visibility: 10 km
Cloud details: teilweise bewölkt 457 m
stark bewölkt 640 m
2017/03/01 19:20 ETHL 011920Z 23016G26KT 9999 -RA SCT015 BKN021 05/02 Q1008 WHT BLU TEMPO WHT
EDJA - Memmingen Allgau, Germany
Distance from station: ONO 95km
aktuell: 01.03.2017 20:50
stark bewölkt
stark bewölkt
 Wind von SW
Wind: SW 24 km/h
Temperatur: 3°C
gefühlte Temperatur: -2°C
Taupunkt: 1°C
Luftfeuchte: 87%
Luftdruck: 1008 hPa
Clouds: stark bewölkt
Visibility: 10 km
Cloud details: Few Clouds 1250 m
stark bewölkt 1798 m
2017/03/01 19:50 EDJA 011950Z 22013KT 9999 FEW041 BKN059 03/01 Q1008
 
LSMA - Alpnach, Switzerland
Distance from station: SW 95km
aktuell: 01.03.2017 16:50
NOT Current
geschlossene Wolkendecke
geschlossene Wolkendecke
 Wind von NO
Wind: NO 17 km/h
Temperatur: 9°C
gefühlte Temperatur: 7°C
Taupunkt: 0°C
Luftfeuchte: 54%
Luftdruck: 1010 hPa
Clouds: geschlossene Wolkendecke
Visibility: 10 km
Cloud details: geschlossene Wolkendecke 2195 m
2017/03/01 15:50 LSMA 011550Z 04009KT 9999 OVC072 09/00 Q1010 RMK BLU